< < Back
Terminal Aerodrome Forecast


Current Version              Previous Versions:   1  2  3  4  5  6  7  8  9  

Terminal Aerodrome Forecast

544
FTUS44 KOHX 010536
TAFCSV
TAF
KCSV 010536Z 0106/0206 31006KT P6SM SKC
      TEMPO 0108/0111 5SM BR
     FM011700 27008KT P6SM SCT050 SCT250=

Latest METAR

584
SAUS70 KWBC 011800 RRX
MTRCSV
METAR KCSV 011753Z AUTO 29003KT 10SM BKN100 OVC110 26/15 A3009 RMK AO2
SLP171 T02560150 10267 20167 50001


USA.gov is the U.S. government's official web portal to all federal, state and local government web resources and services.